createdAt,value
2022-09-03T00:00:33.715Z,2.38
2022-09-03T00:03:16.214Z,2.10
2022-09-03T00:06:12.034Z,2.10
2022-09-03T00:08:46.532Z,2.28
2022-09-03T00:11:22.039Z,2.75
2022-09-03T00:13:59.131Z,2.40
2022-09-03T00:16:34.163Z,2.67
2022-09-03T00:19:03.068Z,2.35
2022-09-03T00:21:44.179Z,2.75
2022-09-03T00:24:15.051Z,2.50
2022-09-03T00:26:46.615Z,2.72
2022-09-03T00:29:31.215Z,2.73
2022-09-03T00:32:02.627Z,2.45
2022-09-03T00:34:41.344Z,2.40
2022-09-03T00:37:15.670Z,2.22
2022-09-03T00:39:43.246Z,2.17
2022-09-03T00:42:28.101Z,2.47
2022-09-03T00:45:13.262Z,2.20
2022-09-03T00:48:10.598Z,2.30
2022-09-03T00:50:46.566Z,2.53
2022-09-03T00:53:39.626Z,2.63
2022-09-03T00:56:33.570Z,2.67
2022-09-03T00:59:09.098Z,2.20
2022-09-03T01:02:10.335Z,2.53
2022-09-03T01:05:04.434Z,2.35
2022-09-03T01:07:47.073Z,2.20
2022-09-03T01:10:46.088Z,2.20
2022-09-03T01:13:19.700Z,2.33
2022-09-03T01:16:19.441Z,2.60
2022-09-03T01:19:11.889Z,2.40
2022-09-03T01:21:44.231Z,2.85
2022-09-03T01:24:47.242Z,3.00
2022-09-03T01:27:23.155Z,2.33
2022-09-03T01:30:06.134Z,2.65
2022-09-03T01:33:08.369Z,2.65
2022-09-03T01:35:44.035Z,2.60
2022-09-03T01:39:02.036Z,2.50
2022-09-03T01:41:53.074Z,2.58
2022-09-03T01:44:25.381Z,2.60
2022-09-03T01:47:32.770Z,2.45
2022-09-03T01:50:27.228Z,2.40
2022-09-03T01:53:15.525Z,2.77
2022-09-03T01:55:57.946Z,2.40
2022-09-03T01:58:29.446Z,2.70
2022-09-03T02:01:02.558Z,2.60
2022-09-03T02:03:41.412Z,2.72
2022-09-03T02:06:10.382Z,2.60
2022-09-03T02:08:37.230Z,2.47
2022-09-03T02:11:09.817Z,2.65
2022-09-03T02:13:40.933Z,2.17
2022-09-03T02:16:15.024Z,2.78
2022-09-03T02:18:46.437Z,2.73
2022-09-03T02:21:16.742Z,2.67
2022-09-03T02:23:43.701Z,2.78
2022-09-03T02:26:12.675Z,2.80
2022-09-03T02:28:39.153Z,3.00
2022-09-03T02:31:05.978Z,3.20
2022-09-03T02:33:39.564Z,3.30
2022-09-03T02:36:09.544Z,3.20
2022-09-03T02:38:36.860Z,3.17
2022-09-03T02:41:03.647Z,2.80
2022-09-03T02:43:39.282Z,2.80
2022-09-03T02:46:09.135Z,2.92
2022-09-03T02:48:36.085Z,2.97
2022-09-03T02:51:02.595Z,2.65
2022-09-03T02:53:40.713Z,2.85
2022-09-03T02:56:07.250Z,2.83
2022-09-03T02:58:33.938Z,2.78
2022-09-03T03:01:00.767Z,2.55
2022-09-03T03:03:27.624Z,2.60
2022-09-03T03:05:56.835Z,2.22
2022-09-03T03:08:27.779Z,2.50
2022-09-03T03:10:58.842Z,2.60
2022-09-03T03:13:29.858Z,2.40
2022-09-03T03:16:02.357Z,2.40
2022-09-03T03:18:29.028Z,2.53
2022-09-03T03:20:56.060Z,2.47
2022-09-03T03:23:22.601Z,2.58
2022-09-03T03:25:49.267Z,2.85
2022-09-03T03:28:15.858Z,3.47
2022-09-03T03:30:42.971Z,3.05
2022-09-03T03:33:10.363Z,2.63
2022-09-03T03:35:37.136Z,2.45
2022-09-03T03:38:04.030Z,2.60
2022-09-03T03:40:31.370Z,2.88
2022-09-03T03:42:58.490Z,2.90
2022-09-03T03:45:25.042Z,3.20
2022-09-03T03:47:51.760Z,2.90
2022-09-03T03:50:18.311Z,2.97
2022-09-03T03:52:44.821Z,2.70
2022-09-03T03:55:11.955Z,2.67
2022-09-03T03:57:42.714Z,2.80
2022-09-03T04:00:09.770Z,2.70
2022-09-03T04:02:39.181Z,3.25
2022-09-03T04:05:06.256Z,2.90
2022-09-03T04:07:34.126Z,2.53
2022-09-03T04:10:00.670Z,2.70
2022-09-03T04:12:27.505Z,2.67
2022-09-03T04:14:54.023Z,2.63
2022-09-03T04:17:24.609Z,2.80
2022-09-03T04:19:51.798Z,2.97
2022-09-03T04:22:19.125Z,2.57
2022-09-03T04:24:45.806Z,2.30
2022-09-03T04:27:12.273Z,2.90
2022-09-03T04:29:38.761Z,2.70
2022-09-03T04:32:24.463Z,2.88
2022-09-03T04:34:50.957Z,2.60
2022-09-03T04:37:19.812Z,2.80
2022-09-03T04:39:46.420Z,2.90
2022-09-03T04:42:13.207Z,3.08
2022-09-03T04:44:41.036Z,2.65
2022-09-03T04:47:07.502Z,2.50
2022-09-03T04:49:34.591Z,2.72
2022-09-03T04:52:01.507Z,2.80
2022-09-03T04:54:28.091Z,2.30
2022-09-03T04:56:55.923Z,2.60
2022-09-03T04:59:22.410Z,2.77
2022-09-03T05:01:48.998Z,2.55
2022-09-03T05:04:15.527Z,3.40
2022-09-03T05:06:43.338Z,2.97
2022-09-03T05:09:09.823Z,3.03
2022-09-03T05:11:36.606Z,2.90
2022-09-03T05:14:05.763Z,2.90
2022-09-03T05:16:32.379Z,2.85
2022-09-03T05:19:00.822Z,2.85
2022-09-03T05:21:28.860Z,3.30
2022-09-03T05:23:55.499Z,2.80
2022-09-03T05:26:27.857Z,2.60
2022-09-03T05:29:00.013Z,2.50
2022-09-03T05:31:29.211Z,2.45
2022-09-03T05:33:59.635Z,2.88
2022-09-03T05:36:28.837Z,2.57
2022-09-03T05:38:58.635Z,3.28
2022-09-03T05:41:26.782Z,3.13
2022-09-03T05:44:01.073Z,3.25
2022-09-03T05:46:33.327Z,2.80
2022-09-03T05:49:02.311Z,2.60
2022-09-03T05:51:30.279Z,2.40
2022-09-03T05:53:58.127Z,3.10
2022-09-03T05:56:26.733Z,2.78
2022-09-03T05:58:56.244Z,3.00
2022-09-03T06:01:25.242Z,3.03
2022-09-03T06:04:09.653Z,2.53
2022-09-03T06:06:38.624Z,3.20
2022-09-03T06:09:08.194Z,2.80
2022-09-03T06:11:37.433Z,2.97
2022-09-03T06:14:06.646Z,2.60
2022-09-03T06:16:35.442Z,2.50
2022-09-03T06:19:02.977Z,2.80
2022-09-03T06:21:29.968Z,2.40
2022-09-03T06:23:59.879Z,2.20
2022-09-03T06:26:28.725Z,2.43
2022-09-03T06:28:56.827Z,2.28
2022-09-03T06:31:24.330Z,2.78
2022-09-03T06:33:51.910Z,2.65
2022-09-03T06:36:19.977Z,2.63
2022-09-03T06:38:47.487Z,2.23
2022-09-03T06:41:23.823Z,2.05
2022-09-03T06:43:57.204Z,2.05
2022-09-03T06:46:24.163Z,2.13
2022-09-03T06:48:51.376Z,2.47
2022-09-03T06:51:20.170Z,2.30
2022-09-03T06:53:49.214Z,2.28
2022-09-03T06:56:27.474Z,2.20
2022-09-03T06:58:58.822Z,1.63
2022-09-03T07:01:33.104Z,2.28
2022-09-03T07:04:02.364Z,2.23
2022-09-03T07:06:31.531Z,2.20
2022-09-03T07:09:00.120Z,2.35
2022-09-03T07:11:29.368Z,2.40
2022-09-03T07:13:56.413Z,2.08
2022-09-03T07:16:25.548Z,1.93
2022-09-03T07:18:52.604Z,2.35
2022-09-03T07:21:26.635Z,1.92
2022-09-03T07:23:54.714Z,2.00
2022-09-03T07:26:32.249Z,1.70
2022-09-03T07:29:00.744Z,2.07
2022-09-03T07:31:36.100Z,1.88
2022-09-03T07:34:10.050Z,1.98
2022-09-03T07:36:42.862Z,2.20
2022-09-03T07:39:11.446Z,2.20
2022-09-03T07:41:38.582Z,2.13
2022-09-03T07:44:08.449Z,2.10
2022-09-03T07:46:37.904Z,2.05
2022-09-03T07:49:06.165Z,1.75
2022-09-03T07:51:35.680Z,1.85
2022-09-03T07:54:06.919Z,2.00
2022-09-03T07:56:35.767Z,1.80
2022-09-03T07:59:03.327Z,1.77
2022-09-03T08:01:33.974Z,1.92
2022-09-03T08:04:02.076Z,1.55
2022-09-03T08:06:30.892Z,1.80
2022-09-03T08:09:04.454Z,1.65
2022-09-03T08:11:35.060Z,2.13
2022-09-03T08:14:07.001Z,1.83
2022-09-03T08:16:42.387Z,1.77
2022-09-03T08:19:09.167Z,2.03
2022-09-03T08:21:35.783Z,1.85
2022-09-03T08:24:02.963Z,1.90
2022-09-03T08:26:35.963Z,1.60
2022-09-03T08:29:03.584Z,1.88
2022-09-03T08:31:32.526Z,2.07
2022-09-03T08:34:03.207Z,1.67
2022-09-03T08:36:31.686Z,1.90
2022-09-03T08:39:04.121Z,1.80
2022-09-03T08:41:57.584Z,1.65
2022-09-03T08:44:47.573Z,2.23
2022-09-03T08:47:21.457Z,1.98
2022-09-03T08:50:00.143Z,1.50
2022-09-03T08:52:32.542Z,1.52
2022-09-03T08:55:18.063Z,1.65
2022-09-03T08:57:48.437Z,1.47
2022-09-03T09:00:15.737Z,1.90
2022-09-03T09:03:06.480Z,1.55
2022-09-03T09:05:44.698Z,1.52
2022-09-03T09:08:17.212Z,1.70
2022-09-03T09:10:46.155Z,1.77
2022-09-03T09:13:16.241Z,1.40
2022-09-03T09:16:06.206Z,1.40
2022-09-03T09:19:21.707Z,1.50
2022-09-03T09:22:15.730Z,1.60
2022-09-03T09:24:46.630Z,1.37
2022-09-03T09:27:18.429Z,1.50
2022-09-03T09:29:49.146Z,1.20
2022-09-03T09:32:19.373Z,1.42
2022-09-03T09:34:52.036Z,1.20
2022-09-03T09:37:19.893Z,1.27
2022-09-03T09:39:58.562Z,1.58
2022-09-03T09:42:25.562Z,1.20
2022-09-03T09:44:52.741Z,1.20
2022-09-03T09:47:27.055Z,1.38
2022-09-03T09:49:58.062Z,1.33
2022-09-03T09:52:28.576Z,2.92
2022-09-03T09:55:09.483Z,1.30
2022-09-03T09:57:37.979Z,1.50
2022-09-03T10:00:13.222Z,1.42
2022-09-03T10:02:47.087Z,1.10
2022-09-03T10:05:16.079Z,1.08
2022-09-03T10:07:42.659Z,1.38
2022-09-03T10:10:17.405Z,1.40
2022-09-03T10:12:51.073Z,1.17
2022-09-03T10:15:26.636Z,1.53
2022-09-03T10:17:59.827Z,1.00
2022-09-03T10:20:53.890Z,1.20
2022-09-03T10:23:28.233Z,1.13
2022-09-03T10:26:16.754Z,1.30
2022-09-03T10:28:47.646Z,1.10
2022-09-03T10:31:15.788Z,1.00
2022-09-03T10:33:55.442Z,1.13
2022-09-03T10:36:26.558Z,1.48
2022-09-03T10:39:05.699Z,1.10
2022-09-03T10:41:55.927Z,1.30
2022-09-03T10:45:05.581Z,1.10
2022-09-03T10:47:41.822Z,1.17
2022-09-03T10:50:21.441Z,1.50
2022-09-03T10:52:51.022Z,1.20
2022-09-03T10:55:30.054Z,1.13
2022-09-03T10:58:15.876Z,0.95
2022-09-03T11:00:53.878Z,1.10
2022-09-03T11:03:31.348Z,0.98
2022-09-03T11:06:07.358Z,1.30
2022-09-03T11:08:43.169Z,1.20
2022-09-03T11:11:20.029Z,1.00
2022-09-03T11:14:04.915Z,1.40
2022-09-03T11:16:36.053Z,2.28
2022-09-03T11:19:08.029Z,1.60
2022-09-03T11:21:37.884Z,1.30
2022-09-03T11:24:17.388Z,1.60
2022-09-03T11:26:48.344Z,1.13
2022-09-03T11:29:30.028Z,1.38
2022-09-03T11:32:08.685Z,1.20
2022-09-03T11:34:54.943Z,1.20
2022-09-03T11:37:21.370Z,1.38
2022-09-03T11:39:59.823Z,1.33
2022-09-03T11:42:38.315Z,1.17
2022-09-03T11:45:26.578Z,1.55
2022-09-03T11:47:54.186Z,1.30
2022-09-03T11:50:28.993Z,1.17
2022-09-03T11:53:08.286Z,1.98
2022-09-03T11:56:00.122Z,1.30
2022-09-03T11:58:35.137Z,1.50
2022-09-03T12:01:05.297Z,1.10
2022-09-03T12:03:54.690Z,1.30
2022-09-03T12:06:38.742Z,1.20
2022-09-03T12:09:24.843Z,1.20
2022-09-03T12:12:29.919Z,1.30
2022-09-03T12:15:19.655Z,1.20
2022-09-03T12:18:12.992Z,1.30
2022-09-03T12:20:41.809Z,1.83
2022-09-03T12:23:11.136Z,1.30
2022-09-03T12:25:49.191Z,1.45
2022-09-03T12:28:23.487Z,1.17
2022-09-03T12:30:53.486Z,1.27
2022-09-03T12:33:22.769Z,1.63
2022-09-03T12:35:59.996Z,1.30
2022-09-03T12:38:44.535Z,1.30
2022-09-03T12:41:27.636Z,1.23
2022-09-03T12:43:59.927Z,1.50
2022-09-03T12:46:34.080Z,1.15
2022-09-03T12:52:05.744Z,1.67
2022-09-03T12:54:34.867Z,1.27
2022-09-03T12:57:01.728Z,1.75
2022-09-03T12:59:33.070Z,1.10
2022-09-03T13:02:05.807Z,1.00
2022-09-03T13:04:36.412Z,1.02
2022-09-03T13:07:15.548Z,1.40
2022-09-03T13:09:42.437Z,1.30
2022-09-03T13:12:28.394Z,1.17
2022-09-03T13:14:56.765Z,1.10
2022-09-03T13:17:54.007Z,1.30
2022-09-03T13:20:38.529Z,1.20
2022-09-03T13:23:20.389Z,1.40
2022-09-03T13:26:12.888Z,1.13
2022-09-03T13:29:05.426Z,1.20
2022-09-03T13:31:46.856Z,1.00
2022-09-03T13:34:36.325Z,1.07
2022-09-03T13:37:14.268Z,1.55
2022-09-03T13:39:52.567Z,1.30
2022-09-03T13:42:31.262Z,1.30
2022-09-03T13:45:20.999Z,1.20
2022-09-03T13:48:26.352Z,1.10
2022-09-03T13:51:07.885Z,1.10
2022-09-03T13:53:55.355Z,1.30
2022-09-03T13:56:44.457Z,2.05
2022-09-03T13:59:40.034Z,1.40
2022-09-03T14:02:45.699Z,1.43
2022-09-03T14:05:34.434Z,1.27
2022-09-03T14:08:24.337Z,1.25
2022-09-03T14:11:00.645Z,1.30
2022-09-03T14:13:45.566Z,1.50
2022-09-03T14:16:18.065Z,1.80
2022-09-03T14:19:03.443Z,1.15
2022-09-03T14:21:41.794Z,1.73
2022-09-03T14:24:19.212Z,1.40
2022-09-03T14:26:57.843Z,1.50
2022-09-03T14:29:28.512Z,1.33
2022-09-03T14:32:13.880Z,1.38
2022-09-03T14:34:52.270Z,1.70
2022-09-03T14:37:59.341Z,1.52
2022-09-03T14:40:43.843Z,2.20
2022-09-03T14:43:16.548Z,1.73
2022-09-03T14:46:08.091Z,1.40
2022-09-03T14:49:03.384Z,1.50
2022-09-03T14:51:45.229Z,1.70
2022-09-03T14:54:50.315Z,1.70
2022-09-03T14:57:40.117Z,1.93
2022-09-03T15:00:18.411Z,1.83
2022-09-03T15:03:12.628Z,1.70
2022-09-03T15:05:54.798Z,1.48
2022-09-03T15:08:33.104Z,1.50
2022-09-03T15:11:02.084Z,3.00
2022-09-03T15:13:37.525Z,1.50
2022-09-03T15:16:22.331Z,1.67
2022-09-03T15:19:11.713Z,1.30
2022-09-03T15:21:46.458Z,2.40
2022-09-03T15:24:18.908Z,1.30
2022-09-03T15:27:28.646Z,1.58
2022-09-03T15:30:09.961Z,1.45
2022-09-03T15:32:48.581Z,1.80
2022-09-03T15:35:38.073Z,1.77
2022-09-03T15:38:27.689Z,1.80
2022-09-03T15:40:57.167Z,1.40
2022-09-03T15:43:33.700Z,1.60
2022-09-03T15:46:10.732Z,1.60
2022-09-03T15:49:02.952Z,1.50
2022-09-03T15:51:54.724Z,1.50
2022-09-03T15:54:43.044Z,1.50
2022-09-03T15:57:20.111Z,1.58
2022-09-03T16:00:01.669Z,1.58
2022-09-03T16:02:39.750Z,1.80
2022-09-03T16:05:26.427Z,1.40
2022-09-03T16:08:06.013Z,1.40
2022-09-03T16:10:42.719Z,1.40
2022-09-03T16:13:30.627Z,1.45
2022-09-03T16:16:00.178Z,1.45
2022-09-03T16:18:39.123Z,2.33
2022-09-03T16:21:23.659Z,1.65
2022-09-03T16:23:58.819Z,1.60
2022-09-03T16:26:37.174Z,1.50
2022-09-03T16:29:28.447Z,2.10
2022-09-03T16:32:33.240Z,1.50
2022-09-03T16:35:13.510Z,1.85
2022-09-03T16:38:04.543Z,1.65
2022-09-03T16:40:33.860Z,1.45
2022-09-03T16:43:40.335Z,1.50
2022-09-03T16:46:17.190Z,1.30
2022-09-03T16:49:06.179Z,1.50
2022-09-03T16:51:54.934Z,1.83
2022-09-03T16:54:44.234Z,1.88
2022-09-03T16:57:44.302Z,2.10
2022-09-03T17:00:21.875Z,1.60
2022-09-03T17:03:26.046Z,1.85
2022-09-03T17:06:14.946Z,1.77
2022-09-03T17:09:05.351Z,1.35
2022-09-03T17:12:01.865Z,1.52
2022-09-03T17:14:48.154Z,1.50
2022-09-03T17:17:32.821Z,1.70
2022-09-03T17:20:25.263Z,2.45
2022-09-03T17:23:07.082Z,2.00
2022-09-03T17:25:38.332Z,2.08
2022-09-03T17:28:42.294Z,1.80
2022-09-03T17:31:22.320Z,2.17
2022-09-03T17:34:09.137Z,2.47
2022-09-03T17:36:48.644Z,2.20
2022-09-03T17:39:33.423Z,2.20
2022-09-03T17:42:12.045Z,2.67
2022-09-03T17:44:55.687Z,2.28
2022-09-03T17:47:25.031Z,2.80
2022-09-03T17:50:06.596Z,2.50
2022-09-03T17:52:35.866Z,2.60
2022-09-03T17:55:12.483Z,2.60
2022-09-03T17:57:48.161Z,2.92
2022-09-03T18:00:59.327Z,3.63
2022-09-03T18:03:53.179Z,2.55
2022-09-03T18:06:41.132Z,2.45
2022-09-03T18:09:22.230Z,2.40
2022-09-03T18:12:21.020Z,3.17
2022-09-03T18:15:04.693Z,2.58
2022-09-03T18:17:51.074Z,2.38
2022-09-03T18:20:36.426Z,2.20
2022-09-03T18:23:25.938Z,2.80
2022-09-03T18:26:25.839Z,3.05
2022-09-03T18:29:23.337Z,2.80
2022-09-03T18:32:08.161Z,2.50
2022-09-03T18:34:57.882Z,2.38
2022-09-03T18:37:45.726Z,2.83
2022-09-03T18:40:49.465Z,2.78
2022-09-03T18:43:48.531Z,3.40
2022-09-03T18:50:45.575Z,3.25
2022-09-03T18:54:02.413Z,3.80
2022-09-03T18:57:05.871Z,3.97
2022-09-03T19:00:09.567Z,3.60
2022-09-03T19:03:24.370Z,3.90
2022-09-03T19:06:26.184Z,3.85
2022-09-03T19:09:10.974Z,3.43
2022-09-03T19:12:23.472Z,3.75
2022-09-03T19:15:24.347Z,3.25
2022-09-03T19:18:29.021Z,4.00
2022-09-03T19:21:48.693Z,3.70
2022-09-03T19:24:33.568Z,3.10
2022-09-03T19:27:59.622Z,3.72
2022-09-03T19:30:53.692Z,3.55
2022-09-03T19:33:45.103Z,3.30
2022-09-03T19:36:46.879Z,3.65
2022-09-03T19:40:07.435Z,3.27
2022-09-03T19:43:18.260Z,3.50
2022-09-03T19:46:09.344Z,3.60
2022-09-03T19:49:08.929Z,3.67
2022-09-03T19:51:59.907Z,3.40
2022-09-03T19:54:48.169Z,3.33
2022-09-03T19:57:36.149Z,3.25
2022-09-03T20:00:22.411Z,3.75
2022-09-03T20:03:18.828Z,3.88
2022-09-03T20:06:06.529Z,4.40
2022-09-03T20:08:56.033Z,4.40
2022-09-03T20:11:24.442Z,4.45
2022-09-03T20:14:14.226Z,4.43
2022-09-03T20:16:54.810Z,4.75
2022-09-03T20:20:00.793Z,4.53
2022-09-03T20:22:38.825Z,4.80
2022-09-03T20:25:45.897Z,4.40
2022-09-03T20:28:42.699Z,4.90
2022-09-03T20:31:48.358Z,4.43
2022-09-03T20:34:39.694Z,4.85
2022-09-03T20:37:18.745Z,4.20
2022-09-03T20:40:09.608Z,4.63
2022-09-03T20:42:45.190Z,4.47
2022-09-03T20:45:26.841Z,4.95
2022-09-03T20:48:01.111Z,4.78
2022-09-03T20:50:44.696Z,4.87
2022-09-03T20:53:19.481Z,5.03
2022-09-03T20:55:50.602Z,5.20
2022-09-03T20:58:25.334Z,5.38
2022-09-03T21:01:05.243Z,5.38
2022-09-03T21:04:05.375Z,5.03
2022-09-03T21:06:31.870Z,5.75
2022-09-03T21:09:31.895Z,5.85
2022-09-03T21:12:27.881Z,5.47
2022-09-03T21:15:03.583Z,6.03
2022-09-03T21:17:41.878Z,5.23
2022-09-03T21:20:24.081Z,5.60
2022-09-03T21:22:56.246Z,6.22
2022-09-03T21:25:45.980Z,6.32
2022-09-03T21:28:21.958Z,6.40
2022-09-03T21:30:56.471Z,7.07
2022-09-03T21:33:28.597Z,6.18
2022-09-03T21:36:33.830Z,6.40
2022-09-03T21:39:10.187Z,6.35
2022-09-03T21:41:44.145Z,7.05
2022-09-03T21:44:19.272Z,7.10
2022-09-03T21:47:18.625Z,8.23
2022-09-03T21:50:07.491Z,6.80
2022-09-03T21:52:48.782Z,7.30
2022-09-03T21:55:31.989Z,7.63
2022-09-03T21:58:10.121Z,9.87
2022-09-03T22:00:37.783Z,9.43
2022-09-03T22:03:07.858Z,8.85
2022-09-03T22:05:57.345Z,7.90
2022-09-03T22:08:36.691Z,7.07
2022-09-03T22:11:54.303Z,7.23
2022-09-03T22:14:21.571Z,6.53
2022-09-03T22:17:17.016Z,6.75
2022-09-03T22:19:44.258Z,7.07
2022-09-03T22:22:40.751Z,7.43
2022-09-03T22:25:35.645Z,7.90
2022-09-03T22:28:27.467Z,7.85
2022-09-03T22:30:53.918Z,7.10
2022-09-03T22:33:28.173Z,7.53
2022-09-03T22:36:12.174Z,8.23
2022-09-03T22:39:11.768Z,8.07
2022-09-03T22:41:38.201Z,6.68
2022-09-03T22:44:23.409Z,7.90
2022-09-03T22:47:24.697Z,7.13
2022-09-03T22:49:54.115Z,7.82
2022-09-03T22:52:39.847Z,7.47
2022-09-03T22:55:16.197Z,8.20
2022-09-03T22:57:53.134Z,7.63
2022-09-03T23:00:19.866Z,8.00
2022-09-03T23:02:53.690Z,7.95
2022-09-03T23:05:43.875Z,8.07
2022-09-03T23:08:44.630Z,8.63
2022-09-03T23:11:36.445Z,8.07
2022-09-03T23:14:12.119Z,7.80
2022-09-03T23:16:53.659Z,8.15
2022-09-03T23:19:30.425Z,7.80
2022-09-03T23:22:01.677Z,7.45
2022-09-03T23:24:38.558Z,8.05
2022-09-03T23:27:08.865Z,8.40
2022-09-03T23:29:42.477Z,7.55
2022-09-03T23:32:11.936Z,7.90
2022-09-03T23:34:40.534Z,8.48
2022-09-03T23:37:47.725Z,8.30
2022-09-03T23:40:45.555Z,7.18
2022-09-03T23:43:31.130Z,8.20
2022-09-03T23:46:18.530Z,7.73
2022-09-03T23:49:04.413Z,8.85
2022-09-03T23:51:54.260Z,8.05
2022-09-03T23:54:47.296Z,8.38
2022-09-03T23:57:32.474Z,8.00
